Private Wetterstation Wechselburg
Wetterdaten: Mittwoch, 01.12.2021
Datum Zeit Temp. +2m Bodentemp. Temp.+5cm Temp. Wind Windchill X Diff Temp. Feuchte +2m Feuchte +5cm Luftdruck Regen Wind Richtung Richtung Sonnenschein Taupunkt Windchill Windben
01.12.2021 00:00 4,7 C 6,7 C 3,7 C 4,7 C 4,7 C 0,0 C 84 % 93 % 1007,8 hPa 0,0 l/m 2,4 km/h (1 Bft) W-SW 247 0 min 2,2 C 4,7 C 1,8 km/h (1 Bft)
01.12.2021 00:05 4,7 C 6,7 C 3,6 C 4,7 C 4,6 C 0,0 C 84 % 93 % 1007,8 hPa 0,0 l/m 1,4 km/h (1 Bft) W-SW 247 0 min 2,2 C 4,6 C 2,7 km/h (1 Bft)
01.12.2021 00:10 4,7 C 6,7 C 3,6 C 4,7 C 4,6 C 0,0 C 84 % 93 % 1007,8 hPa 0,0 l/m 1,6 km/h (1 Bft) W-SW 247 0 min 2,2 C 4,6 C 2,4 km/h (1 Bft)
01.12.2021 00:15 4,7 C 6,7 C 3,7 C 4,7 C 4,6 C 0,0 C 85 % 93 % 1007,8 hPa 0,0 l/m 1,8 km/h (1 Bft) W-SW 247 0 min 2,4 C 4,6 C 6,4 km/h (2 Bft)
01.12.2021 00:20 4,6 C 6,7 C 3,7 C 4,7 C 4,7 C 0,1 C 85 % 94 % 1007,8 hPa 0,0 l/m 2,3 km/h (1 Bft) W-SW 247 0 min 2,3 C 4,7 C 1,8 km/h (1 Bft)
01.12.2021 00:25 4,7 C 6,7 C 3,7 C 4,7 C 4,7 C 0,0 C 85 % 94 % 1007,8 hPa 0,0 l/m 2,4 km/h (1 Bft) S 180 0 min 2,4 C 4,7 C 1,6 km/h (1 Bft)
01.12.2021 00:30 4,7 C 6,7 C 3,7 C 4,7 C 4,7 C 0,0 C 85 % 94 % 1007,8 hPa 0,0 l/m 2,7 km/h (1 Bft) SW 225 0 min 2,4 C 4,7 C 4,2 km/h (1 Bft)
01.12.2021 00:35 4,7 C 6,9 C 3,7 C 4,7 C 4,6 C 0,0 C 85 % 94 % 1007,8 hPa 0,0 l/m 3,2 km/h (1 Bft) W-SW 247 0 min 2,4 C 4,6 C 11,3 km/h (2 Bft)
01.12.2021 00:40 4,7 C 6,9 C 3,8 C 4,6 C 4,3 C 0,0 C 85 % 94 % 1007,8 hPa 0,0 l/m 3,7 km/h (1 Bft) SW 225 0 min 2,4 C 4,3 C 8,7 km/h (2 Bft)
01.12.2021 00:45 4,7 C 6,9 C 3,8 C 4,6 C 4,4 C 0,0 C 86 % 94 % 1007,8 hPa 0,0 l/m 3,5 km/h (1 Bft) S 180 0 min 2,6 C 4,4 C 6,6 km/h (2 Bft)
01.12.2021 00:50 4,7 C 6,9 C 3,8 C 4,6 C 4,4 C 0,0 C 86 % 94 % 1007,6 hPa 0,0 l/m 3,7 km/h (1 Bft) S-SW 202 0 min 2,6 C 4,4 C 3,5 km/h (1 Bft)
01.12.2021 00:55 4,7 C 6,9 C 3,9 C 4,6 C 4,4 C 0,0 C 86 % 94 % 1007,6 hPa 0,0 l/m 3,5 km/h (1 Bft) NO 45 0 min 2,6 C 4,4 C 2,6 km/h (1 Bft)
01.12.2021 01:00 4,7 C 7,0 C 3,9 C 4,5 C 4,2 C 0,0 C 86 % 94 % 1007,6 hPa 0,0 l/m 3,7 km/h (1 Bft) W-SW 247 0 min 2,6 C 4,2 C 6,1 km/h (2 Bft)
01.12.2021 01:05 4,6 C 7,0 C 3,9 C 4,5 C 4,3 C 0,0 C 86 % 94 % 1007,6 hPa 0,0 l/m 3,4 km/h (1 Bft) S-SO 157 0 min 2,5 C 4,3 C 4,0 km/h (1 Bft)
01.12.2021 01:10 4,5 C 7,0 C 3,9 C 4,5 C 4,5 C 0,0 C 86 % 94 % 1007,9 hPa 0,0 l/m 2,9 km/h (1 Bft) O-SO 112 0 min 2,4 C 4,5 C 4,0 km/h (1 Bft)
01.12.2021 01:15 4,5 C 7,1 C 3,9 C 4,5 C 4,5 C 0,0 C 87 % 94 % 1007,9 hPa 0,0 l/m 2,4 km/h (1 Bft) S 180 0 min 2,5 C 4,5 C 2,1 km/h (1 Bft)
01.12.2021 01:20 4,5 C 7,1 C 3,9 C 4,5 C 4,5 C 0,0 C 87 % 94 % 1007,9 hPa 0,0 l/m 2,4 km/h (1 Bft) N-NW 337 0 min 2,5 C 4,5 C 1,9 km/h (1 Bft)
01.12.2021 01:25 4,5 C 7,1 C 3,9 C 4,5 C 4,4 C 0,0 C 87 % 94 % 1007,9 hPa 0,0 l/m 3,1 km/h (1 Bft) SW 225 0 min 2,5 C 4,4 C 6,6 km/h (2 Bft)
01.12.2021 01:30 4,5 C 7,2 C 3,9 C 4,5 C 4,5 C 0,0 C 87 % 94 % 1007,5 hPa 0,0 l/m 2,9 km/h (1 Bft) SW 225 0 min 2,5 C 4,5 C 1,8 km/h (1 Bft)
01.12.2021 01:35 4,6 C 7,2 C 3,9 C 4,6 C 4,5 C 0,0 C 88 % 94 % 1007,5 hPa 0,0 l/m 2,6 km/h (1 Bft) S-SW 202 0 min 2,8 C 4,5 C 6,3 km/h (2 Bft)
01.12.2021 01:40 4,5 C 7,2 C 3,9 C 4,5 C 4,5 C 0,0 C 88 % 94 % 1007,5 hPa 0,0 l/m 1,9 km/h (1 Bft) SW 225 0 min 2,7 C 4,5 C 3,7 km/h (1 Bft)
01.12.2021 01:45 4,5 C 7,2 C 3,9 C 4,5 C 4,5 C 0,0 C 88 % 94 % 1007,5 hPa 0,0 l/m 2,6 km/h (1 Bft) W-SW 247 0 min 2,7 C 4,5 C 4,7 km/h (1 Bft)
01.12.2021 01:50 4,6 C 7,2 C 3,9 C 4,5 C 4,4 C 0,0 C 88 % 94 % 1007,0 hPa 0,0 l/m 3,1 km/h (1 Bft) S-SW 202 0 min 2,8 C 4,4 C 4,7 km/h (1 Bft)
01.12.2021 01:55 4,6 C 7,2 C 3,9 C 4,4 C 4,0 C 0,0 C 88 % 94 % 1007,0 hPa 0,0 l/m 3,9 km/h (1 Bft) SW 225 0 min 2,8 C 4,0 C 8,7 km/h (2 Bft)
01.12.2021 02:00 4,7 C 7,2 C 4,0 C 4,4 C 3,8 C 0,0 C 88 % 94 % 1007,0 hPa 0,0 l/m 4,2 km/h (1 Bft) O 90 0 min 2,9 C 3,8 C 5,5 km/h (1 Bft)
01.12.2021 02:05 4,7 C 7,2 C 4,1 C 4,5 C 4,0 C 0,0 C 88 % 94 % 1007,0 hPa 0,0 l/m 4,2 km/h (1 Bft) SO 135 0 min 2,9 C 4,0 C 2,3 km/h (1 Bft)
01.12.2021 02:10 4,7 C 7,3 C 4,1 C 4,6 C 4,4 C 0,0 C 88 % 94 % 1006,9 hPa 0,0 l/m 3,2 km/h (1 Bft) SW 225 0 min 2,9 C 4,4 C 5,1 km/h (1 Bft)
01.12.2021 02:15 4,6 C 7,3 C 4,1 C 4,5 C 4,3 C 0,0 C 88 % 94 % 1006,9 hPa 0,0 l/m 3,5 km/h (1 Bft) S-SW 202 0 min 2,8 C 4,3 C 2,9 km/h (1 Bft)
01.12.2021 02:20 4,7 C 7,3 C 4,1 C 4,5 C 4,2 C 0,0 C 88 % 94 % 1006,9 hPa 0,0 l/m 3,7 km/h (1 Bft) SW 225 0 min 2,9 C 4,2 C 6,8 km/h (2 Bft)
01.12.2021 02:25 4,7 C 7,3 C 4,1 C 4,6 C 4,4 C 0,0 C 88 % 94 % 1006,9 hPa 0,0 l/m 3,4 km/h (1 Bft) SW 225 0 min 2,9 C 4,4 C 7,4 km/h (2 Bft)
01.12.2021 02:30 4,7 C 7,3 C 4,1 C 4,6 C 4,3 C 0,0 C 88 % 94 % 1006,6 hPa 0,0 l/m 3,5 km/h (1 Bft) SO 135 0 min 2,9 C 4,3 C 7,9 km/h (2 Bft)
01.12.2021 02:35 4,7 C 7,3 C 4,1 C 4,7 C 4,6 C 0,0 C 88 % 94 % 1006,6 hPa 0,0 l/m 3,1 km/h (1 Bft) W-SW 247 0 min 2,9 C 4,6 C 5,6 km/h (1 Bft)
01.12.2021 02:40 4,6 C 7,3 C 4,1 C 4,6 C 4,6 C 0,0 C 88 % 94 % 1006,6 hPa 0,0 l/m 2,1 km/h (1 Bft) W-NW 292 0 min 2,8 C 4,6 C 0,0 km/h (0 Bft)
01.12.2021 02:45 4,5 C 7,3 C 4,1 C 4,6 C 4,6 C 0,1 C 88 % 94 % 1006,6 hPa 0,0 l/m 1,0 km/h (0 Bft) SO 135 0 min 2,7 C 4,6 C 0,0 km/h (0 Bft)
01.12.2021 02:50 4,5 C 7,3 C 4,1 C 4,6 C 4,6 C 0,1 C 88 % 94 % 1006,2 hPa 0,0 l/m 1,1 km/h (1 Bft) S-SO 157 0 min 2,7 C 4,6 C 4,3 km/h (1 Bft)
01.12.2021 02:55 4,4 C 7,3 C 4,0 C 4,6 C 4,6 C 0,2 C 89 % 94 % 1006,2 hPa 0,0 l/m 2,9 km/h (1 Bft) S 180 0 min 2,7 C 4,6 C 4,7 km/h (1 Bft)
01.12.2021 03:00 4,4 C 7,3 C 4,0 C 4,3 C 4,1 C 0,0 C 89 % 94 % 1006,2 hPa 0,0 l/m 4,0 km/h (1 Bft) S 180 0 min 2,7 C 4,1 C 5,1 km/h (1 Bft)
01.12.2021 03:05 4,4 C 7,4 C 4,1 C 4,3 C 4,0 C 0,0 C 88 % 94 % 1006,2 hPa 0,0 l/m 4,2 km/h (1 Bft) S 180 0 min 2,6 C 4,0 C 5,8 km/h (2 Bft)
01.12.2021 03:10 4,4 C 7,4 C 4,1 C 4,4 C 4,3 C 0,0 C 89 % 94 % 1005,8 hPa 0,0 l/m 3,5 km/h (1 Bft) S-SO 157 0 min 2,7 C 4,3 C 5,8 km/h (2 Bft)
01.12.2021 03:15 4,4 C 7,4 C 4,1 C 4,4 C 4,4 C 0,0 C 89 % 94 % 1005,8 hPa 0,0 l/m 3,2 km/h (1 Bft) S 180 0 min 2,7 C 4,4 C 3,5 km/h (1 Bft)
01.12.2021 03:20 4,4 C 7,4 C 4,1 C 4,4 C 4,3 C 0,0 C 89 % 94 % 1005,8 hPa 0,0 l/m 3,5 km/h (1 Bft) S-SW 202 0 min 2,7 C 4,3 C 6,3 km/h (2 Bft)
01.12.2021 03:25 4,3 C 7,4 C 4,1 C 4,4 C 4,4 C 0,1 C 89 % 94 % 1005,8 hPa 0,0 l/m 3,4 km/h (1 Bft) SW 225 0 min 2,7 C 4,4 C 6,4 km/h (2 Bft)
01.12.2021 03:30 4,3 C 7,4 C 4,1 C 4,3 C 4,3 C 0,0 C 89 % 94 % 1005,6 hPa 0,0 l/m 3,5 km/h (1 Bft) SW 225 0 min 2,7 C 4,3 C 5,1 km/h (1 Bft)
01.12.2021 03:35 4,3 C 7,4 C 4,0 C 4,4 C 4,4 C 0,1 C 89 % 95 % 1005,6 hPa 0,0 l/m 3,2 km/h (1 Bft) S 180 0 min 2,7 C 4,4 C 5,1 km/h (1 Bft)
01.12.2021 03:40 4,3 C 7,4 C 4,1 C 4,6 C 4,6 C 0,3 C 89 % 94 % 1005,6 hPa 0,7 l/m 2,3 km/h (1 Bft) S-SW 202 0 min 2,7 C 4,6 C 1,9 km/h (1 Bft)
01.12.2021 03:45 4,2 C 7,4 C 4,1 C 4,6 C 4,6 C 0,4 C 89 % 95 % 1005,6 hPa 0,0 l/m 2,1 km/h (1 Bft) W-NW 292 0 min 2,6 C 4,6 C 3,9 km/h (1 Bft)
01.12.2021 03:50 4,3 C 7,4 C 4,1 C 4,6 C 4,6 C 0,3 C 89 % 95 % 1005,2 hPa 0,0 l/m 3,1 km/h (1 Bft) S 180 0 min 2,7 C 4,6 C 3,7 km/h (1 Bft)
01.12.2021 03:55 4,3 C 7,4 C 4,1 C 4,3 C 4,2 C 0,0 C 89 % 95 % 1005,2 hPa 0,0 l/m 3,7 km/h (1 Bft) S-SW 202 0 min 2,7 C 4,2 C 6,0 km/h (2 Bft)
01.12.2021 04:00 4,3 C 7,4 C 4,1 C 4,4 C 4,4 C 0,1 C 89 % 95 % 1005,2 hPa 0,0 l/m 3,4 km/h (1 Bft) S-SW 202 0 min 2,7 C 4,4 C 3,7 km/h (1 Bft)
01.12.2021 04:05 4,3 C 7,4 C 4,1 C 4,6 C 4,6 C 0,3 C 89 % 95 % 1005,2 hPa 0,0 l/m 2,9 km/h (1 Bft) S 180 0 min 2,7 C 4,6 C 5,0 km/h (1 Bft)
01.12.2021 04:10 4,3 C 7,4 C 4,1 C 4,6 C 4,6 C 0,3 C 89 % 95 % 1004,7 hPa 0,0 l/m 2,9 km/h (1 Bft) W-SW 247 0 min 2,7 C 4,6 C 3,5 km/h (1 Bft)
01.12.2021 04:15 4,2 C 7,4 C 4,2 C 4,5 C 4,5 C 0,3 C 89 % 94 % 1004,7 hPa 0,0 l/m 3,4 km/h (1 Bft) SO 135 0 min 2,6 C 4,5 C 6,1 km/h (2 Bft)
01.12.2021 04:20 4,3 C 7,4 C 4,2 C 4,7 C 4,7 C 0,4 C 89 % 94 % 1004,7 hPa 0,0 l/m 2,7 km/h (1 Bft) SO 135 0 min 2,7 C 4,7 C 2,1 km/h (1 Bft)
01.12.2021 04:25 4,3 C 7,4 C 4,3 C 4,5 C 4,5 C 0,2 C 89 % 94 % 1004,7 hPa 0,0 l/m 3,4 km/h (1 Bft) W 270 0 min 2,7 C 4,5 C 12,2 km/h (2 Bft)
01.12.2021 04:30 4,3 C 7,4 C 4,3 C 4,3 C 4,2 C 0,0 C 88 % 94 % 1004,3 hPa 0,0 l/m 4,0 km/h (1 Bft) SW 225 0 min 2,5 C 4,2 C 3,2 km/h (1 Bft)
01.12.2021 04:35 4,4 C 7,4 C 4,3 C 4,3 C 4,1 C 0,0 C 89 % 94 % 1004,3 hPa 0,0 l/m 4,3 km/h (1 Bft) SO 135 0 min 2,7 C 4,1 C 3,2 km/h (1 Bft)
01.12.2021 04:40 4,4 C 7,4 C 4,3 C 4,3 C 4,2 C 0,0 C 89 % 94 % 1004,3 hPa 0,0 l/m 4,0 km/h (1 Bft) W 270 0 min 2,7 C 4,2 C 3,7 km/h (1 Bft)
01.12.2021 04:45 4,5 C 7,3 C 4,3 C 4,5 C 4,5 C 0,0 C 89 % 94 % 1004,3 hPa 0,0 l/m 3,4 km/h (1 Bft) W-SW 247 0 min 2,8 C 4,5 C 13,2 km/h (3 Bft)
01.12.2021 04:50 4,5 C 7,3 C 4,3 C 4,5 C 4,4 C 0,0 C 88 % 94 % 1003,9 hPa 0,0 l/m 3,5 km/h (1 Bft) SO 135 0 min 2,7 C 4,4 C 7,6 km/h (2 Bft)
01.12.2021 04:55 4,7 C 7,3 C 4,3 C 4,4 C 3,8 C 0,0 C 88 % 94 % 1003,9 hPa 0,0 l/m 4,8 km/h (1 Bft) O 90 0 min 2,9 C 2,8 C 9,8 km/h (2 Bft)
01.12.2021 05:00 4,6 C 7,3 C 4,3 C 4,3 C 3,6 C 0,0 C 89 % 94 % 1003,9 hPa 0,0 l/m 5,5 km/h (1 Bft) SO 135 0 min 2,9 C 2,3 C 12,7 km/h (3 Bft)
01.12.2021 05:05 4,7 C 7,3 C 4,3 C 4,4 C 3,7 C 0,0 C 88 % 94 % 1003,9 hPa 0,0 l/m 5,3 km/h (1 Bft) NW 315 0 min 2,9 C 2,5 C 4,8 km/h (1 Bft)
01.12.2021 05:10 4,7 C 7,4 C 4,3 C 4,4 C 3,7 C 0,0 C 88 % 94 % 1003,7 hPa 0,0 l/m 5,3 km/h (1 Bft) SO 135 0 min 2,9 C 2,5 C 8,7 km/h (2 Bft)
01.12.2021 05:15 4,8 C 7,4 C 4,3 C 4,4 C 3,5 C 0,0 C 88 % 94 % 1003,7 hPa 0,0 l/m 5,6 km/h (1 Bft) S 180 0 min 3,0 C 2,1 C 7,4 km/h (2 Bft)
01.12.2021 05:20 4,8 C 7,4 C 4,3 C 4,4 C 3,6 C 0,0 C 88 % 94 % 1003,7 hPa 0,0 l/m 5,5 km/h (1 Bft) S-SO 157 0 min 3,0 C 2,3 C 6,8 km/h (2 Bft)
01.12.2021 05:25 4,8 C 7,4 C 4,3 C 4,5 C 3,9 C 0,0 C 88 % 94 % 1003,7 hPa 0,0 l/m 4,5 km/h (1 Bft) S 180 0 min 3,0 C 3,9 C 4,8 km/h (1 Bft)
01.12.2021 05:30 4,8 C 7,4 C 4,3 C 4,5 C 3,9 C 0,0 C 88 % 94 % 1003,0 hPa 0,7 l/m 4,3 km/h (1 Bft) W-NW 292 0 min 3,0 C 3,9 C 3,2 km/h (1 Bft)
01.12.2021 05:35 4,8 C 7,4 C 4,3 C 4,6 C 4,2 C 0,0 C 88 % 94 % 1003,0 hPa 0,0 l/m 4,0 km/h (1 Bft) O-NO 67 0 min 3,0 C 4,2 C 9,8 km/h (2 Bft)
01.12.2021 05:40 4,8 C 7,4 C 4,3 C 4,4 C 3,7 C 0,0 C 88 % 94 % 1003,0 hPa 0,0 l/m 5,1 km/h (1 Bft) SW 225 0 min 3,0 C 2,6 C 7,6 km/h (2 Bft)
01.12.2021 05:45 4,9 C 7,4 C 4,3 C 4,4 C 3,3 C 0,0 C 89 % 94 % 1003,0 hPa 0,0 l/m 6,3 km/h (2 Bft) SO 135 0 min 3,2 C 1,7 C 16,6 km/h (3 Bft)
01.12.2021 05:50 4,8 C 7,5 C 4,3 C 4,4 C 3,6 C 0,0 C 88 % 94 % 1003,2 hPa 0,0 l/m 5,5 km/h (1 Bft) S 180 0 min 3,0 C 2,3 C 13,4 km/h (3 Bft)
01.12.2021 05:55 4,8 C 7,5 C 4,3 C 4,4 C 3,5 C 0,0 C 88 % 94 % 1003,2 hPa 0,0 l/m 5,6 km/h (1 Bft) S 180 0 min 3,0 C 2,1 C 11,4 km/h (2 Bft)
01.12.2021 06:00 4,8 C 7,4 C 4,3 C 4,3 C 3,2 C 0,0 C 88 % 94 % 1003,2 hPa 0,0 l/m 6,6 km/h (2 Bft) O-SO 112 0 min 3,0 C 1,4 C 9,0 km/h (2 Bft)
01.12.2021 06:05 4,8 C 7,5 C 4,2 C 4,3 C 3,3 C 0,0 C 88 % 94 % 1003,2 hPa 0,7 l/m 6,1 km/h (2 Bft) S-SO 157 0 min 3,0 C 1,7 C 17,1 km/h (3 Bft)
01.12.2021 06:10 4,8 C 7,5 C 4,2 C 4,4 C 3,5 C 0,0 C 88 % 94 % 1002,8 hPa 0,0 l/m 5,6 km/h (1 Bft) SO 135 0 min 3,0 C 2,1 C 6,1 km/h (2 Bft)
01.12.2021 06:15 4,8 C 7,5 C 4,2 C 4,4 C 3,7 C 0,0 C 88 % 94 % 1002,8 hPa 0,0 l/m 5,1 km/h (1 Bft) N-NO 22 0 min 3,0 C 2,6 C 22,7 km/h (4 Bft)
01.12.2021 06:20 4,9 C 7,5 C 4,2 C 4,5 C 3,8 C 0,0 C 89 % 94 % 1002,8 hPa 0,7 l/m 5,0 km/h (1 Bft) S 180 0 min 3,2 C 2,7 C 3,1 km/h (1 Bft)
01.12.2021 06:25 4,8 C 7,5 C 4,2 C 4,3 C 3,4 C 0,0 C 88 % 94 % 1002,8 hPa 0,0 l/m 5,6 km/h (1 Bft) SO 135 0 min 3,0 C 2,0 C 12,7 km/h (3 Bft)
01.12.2021 06:30 4,9 C 7,5 C 4,1 C 4,4 C 3,3 C 0,0 C 89 % 94 % 1002,7 hPa 0,0 l/m 6,0 km/h (2 Bft) SW 225 0 min 3,2 C 1,8 C 11,3 km/h (2 Bft)
01.12.2021 06:35 4,9 C 7,5 C 4,1 C 4,3 C 3,1 C 0,0 C 89 % 94 % 1002,7 hPa 0,0 l/m 6,6 km/h (2 Bft) SW 225 0 min 3,2 C 1,3 C 11,6 km/h (2 Bft)
01.12.2021 06:40 4,9 C 7,5 C 4,1 C 4,2 C 2,7 C 0,0 C 89 % 94 % 1002,7 hPa 0,0 l/m 7,2 km/h (2 Bft) S 180 0 min 3,2 C 0,7 C 10,1 km/h (2 Bft)
01.12.2021 06:45 4,9 C 7,5 C 4,0 C 4,4 C 2,6 C 0,0 C 89 % 94 % 1002,7 hPa 0,0 l/m 7,7 km/h (2 Bft) S-SO 157 0 min 3,2 C 0,4 C 11,9 km/h (2 Bft)
01.12.2021 06:50 4,9 C 7,5 C 4,0 C 4,1 C 2,6 C 0,0 C 89 % 94 % 1002,4 hPa 0,0 l/m 7,7 km/h (2 Bft) S-SW 202 0 min 3,2 C 0,4 C 10,6 km/h (2 Bft)
01.12.2021 06:55 4,9 C 7,5 C 4,0 C 4,3 C 2,4 C 0,0 C 89 % 94 % 1002,4 hPa 0,0 l/m 8,5 km/h (2 Bft) W-SW 247 0 min 3,2 C -0,1 C 16,4 km/h (3 Bft)
01.12.2021 07:00 4,9 C 7,5 C 3,9 C 4,3 C 2,5 C 0,0 C 89 % 94 % 1002,4 hPa 0,0 l/m 8,2 km/h (2 Bft) SW 225 0 min 3,2 C 0,1 C 6,8 km/h (2 Bft)
01.12.2021 07:05 4,8 C 7,5 C 3,9 C 4,1 C 2,7 C 0,0 C 88 % 94 % 1002,4 hPa 0,0 l/m 6,9 km/h (2 Bft) S 180 0 min 3,0 C 0,8 C 9,2 km/h (2 Bft)
01.12.2021 07:10 4,8 C 7,5 C 3,9 C 4,1 C 2,8 C 0,0 C 88 % 94 % 1002,1 hPa 0,0 l/m 6,6 km/h (2 Bft) W 270 0 min 3,0 C 1,0 C 8,7 km/h (2 Bft)
01.12.2021 07:15 4,8 C 7,5 C 3,9 C 4,1 C 2,7 C 0,0 C 88 % 94 % 1002,1 hPa 0,0 l/m 6,9 km/h (2 Bft) S 180 0 min 3,0 C 0,8 C 9,2 km/h (2 Bft)
01.12.2021 07:20 4,8 C 7,5 C 3,9 C 4,2 C 3,1 C 0,0 C 88 % 94 % 1002,1 hPa 0,0 l/m 5,6 km/h (1 Bft) S 180 0 min 3,0 C 1,7 C 6,6 km/h (2 Bft)
01.12.2021 07:25 4,9 C 7,5 C 3,9 C 4,2 C 2,8 C 0,0 C 89 % 94 % 1002,1 hPa 0,0 l/m 6,8 km/h (2 Bft) S 180 0 min 3,2 C 0,9 C 9,3 km/h (2 Bft)
01.12.2021 07:30 4,9 C 7,5 C 3,9 C 4,1 C 2,6 C 0,0 C 89 % 94 % 1001,8 hPa 0,0 l/m 7,2 km/h (2 Bft) SW 225 0 min 3,2 C 0,6 C 3,7 km/h (1 Bft)
01.12.2021 07:35 4,9 C 7,5 C 3,9 C 4,2 C 2,8 C 0,0 C 89 % 94 % 1001,8 hPa 0,0 l/m 6,6 km/h (2 Bft) S 180 0 min 3,2 C 1,0 C 8,0 km/h (2 Bft)
01.12.2021 07:40 4,9 C 7,5 C 4,0 C 4,3 C 3,1 C 0,0 C 89 % 94 % 1001,8 hPa 0,0 l/m 5,8 km/h (2 Bft) SO 135 0 min 3,2 C 1,6 C 5,8 km/h (2 Bft)
01.12.2021 07:45 4,9 C 7,5 C 4,0 C 4,4 C 3,3 C 0,0 C 89 % 94 % 1001,8 hPa 0,0 l/m 5,3 km/h (1 Bft) S 180 0 min 3,2 C 2,0 C 8,2 km/h (2 Bft)
01.12.2021 07:50 4,9 C 7,5 C 4,1 C 4,2 C 2,9 C 0,0 C 89 % 94 % 1001,2 hPa 0,7 l/m 6,1 km/h (2 Bft) S 180 0 min 3,2 C 1,3 C 9,2 km/h (2 Bft)
01.12.2021 07:55 4,9 C 7,6 C 4,0 C 4,2 C 2,9 C 0,0 C 89 % 94 % 1001,2 hPa 0,0 l/m 6,6 km/h (2 Bft) S 180 0 min 3,2 C 1,1 C 6,0 km/h (2 Bft)
01.12.2021 08:00 4,9 C 7,6 C 4,0 C 4,3 C 3,2 C 0,0 C 89 % 94 % 1001,2 hPa 0,0 l/m 6,0 km/h (2 Bft) SO 135 0 min 3,2 C 1,7 C 5,6 km/h (1 Bft)
01.12.2021 08:05 4,9 C 7,6 C 4,1 C 4,4 C 3,4 C 0,0 C 89 % 94 % 1001,2 hPa 0,0 l/m 5,3 km/h (1 Bft) O-SO 112 0 min 3,2 C 2,1 C 2,7 km/h (1 Bft)
01.12.2021 08:10 5,1 C 7,5 C 4,2 C 4,5 C 3,2 C 0,0 C 89 % 94 % 1000,9 hPa 0,0 l/m 5,8 km/h (2 Bft) S-SO 157 0 min 3,4 C 1,7 C 9,8 km/h (2 Bft)
01.12.2021 08:15 5,1 C 7,6 C 4,2 C 4,4 C 3,0 C 0,0 C 89 % 94 % 1000,9 hPa 0,0 l/m 6,8 km/h (2 Bft) SW 225 0 min 3,4 C 1,1 C 9,5 km/h (2 Bft)
01.12.2021 08:20 5,1 C 7,5 C 4,3 C 4,4 C 3,1 C 0,0 C 88 % 94 % 1000,9 hPa 0,0 l/m 6,8 km/h (2 Bft) SO 135 0 min 3,3 C 1,3 C 6,0 km/h (2 Bft)
01.12.2021 08:25 5,2 C 7,6 C 4,3 C 4,5 C 3,2 C 0,0 C 88 % 94 % 1000,9 hPa 0,0 l/m 6,8 km/h (2 Bft) S 180 0 min 3,4 C 1,4 C 3,7 km/h (1 Bft)
01.12.2021 08:30 5,2 C 7,6 C 4,3 C 4,5 C 3,1 C 0,0 C 88 % 94 % 1001,4 hPa 0,0 l/m 7,1 km/h (2 Bft) SW 225 0 min 3,4 C 1,2 C 15,1 km/h (3 Bft)
01.12.2021 08:35 5,3 C 7,6 C 4,4 C 4,7 C 2,7 C 0,0 C 88 % 94 % 1001,4 hPa 0,0 l/m 9,2 km/h (2 Bft) SW 225 0 min 3,5 C 0,1 C 14,2 km/h (3 Bft)
01.12.2021 08:40 5,3 C 7,6 C 4,3 C 4,7 C 2,6 C 0,0 C 88 % 94 % 1001,4 hPa 0,0 l/m 9,8 km/h (2 Bft) S 180 0 min 3,5 C -0,2 C 13,4 km/h (3 Bft)
01.12.2021 08:45 5,5 C 7,5 C 4,5 C 4,8 C 2,9 C 0,0 C 88 % 94 % 1001,4 hPa 0,0 l/m 9,0 km/h (2 Bft) S-SO 157 0 min 3,7 C 0,4 C 23,3 km/h (4 Bft)
01.12.2021 08:50 5,4 C 7,6 C 4,5 C 4,8 C 2,8 C 0,0 C 88 % 94 % 1001,2 hPa 0,0 l/m 9,8 km/h (2 Bft) SW 225 0 min 3,6 C 0,1 C 12,9 km/h (3 Bft)
01.12.2021 08:55 5,5 C 7,5 C 4,5 C 4,9 C 3,1 C 0,0 C 88 % 94 % 1001,2 hPa 0,0 l/m 9,3 km/h (2 Bft) S-SO 157 0 min 3,7 C 0,6 C 10,3 km/h (2 Bft)
01.12.2021 09:00 5,4 C 7,5 C 4,6 C 4,8 C 3,7 C 0,0 C 88 % 93 % 1001,2 hPa 0,0 l/m 6,9 km/h (2 Bft) NW 315 0 min 3,6 C 1,9 C 5,5 km/h (1 Bft)
01.12.2021 09:05 5,5 C 7,5 C 4,6 C 4,9 C 3,8 C 0,0 C 88 % 93 % 1001,2 hPa 0,0 l/m 6,8 km/h (2 Bft) SO 135 0 min 3,7 C 2,1 C 5,0 km/h (1 Bft)
01.12.2021 09:10 5,5 C 7,5 C 4,7 C 4,9 C 3,7 C 0,0 C 88 % 93 % 1000,8 hPa 0,0 l/m 7,2 km/h (2 Bft) W-SW 247 0 min 3,7 C 1,8 C 11,4 km/h (2 Bft)
01.12.2021 09:15 5,6 C 7,5 C 4,7 C 5,0 C 3,8 C 0,0 C 87 % 93 % 1000,8 hPa 0,0 l/m 6,8 km/h (2 Bft) NW 315 0 min 3,6 C 2,1 C 6,9 km/h (2 Bft)
01.12.2021 09:20 5,6 C 7,5 C 4,7 C 5,0 C 3,7 C 0,0 C 87 % 93 % 1000,8 hPa 0,0 l/m 6,9 km/h (2 Bft) W-NW 292 0 min 3,6 C 1,9 C 9,0 km/h (2 Bft)
01.12.2021 09:25 5,5 C 7,5 C 4,7 C 5,1 C 4,2 C 0,0 C 87 % 93 % 1000,8 hPa 0,0 l/m 6,0 km/h (2 Bft) S 180 0 min 3,5 C 2,8 C 15,6 km/h (3 Bft)
01.12.2021 09:30 5,6 C 7,5 C 4,8 C 5,1 C 4,2 C 0,0 C 87 % 93 % 999,9 hPa 0,0 l/m 6,3 km/h (2 Bft) W-SW 247 0 min 3,6 C 2,7 C 6,0 km/h (2 Bft)
01.12.2021 09:35 5,7 C 7,5 C 4,8 C 5,3 C 3,9 C 0,0 C 87 % 93 % 999,9 hPa 0,0 l/m 8,2 km/h (2 Bft) O-SO 112 0 min 3,7 C 1,8 C 25,1 km/h (4 Bft)
01.12.2021 09:40 5,7 C 7,5 C 4,7 C 5,3 C 4,1 C 0,0 C 87 % 93 % 999,9 hPa 0,0 l/m 8,2 km/h (2 Bft) W-NW 292 0 min 3,7 C 2,0 C 14,5 km/h (3 Bft)
01.12.2021 09:45 5,6 C 7,5 C 4,8 C 5,3 C 4,6 C 0,0 C 87 % 93 % 999,9 hPa 0,0 l/m 7,1 km/h (2 Bft) NO 45 0 min 3,6 C 2,9 C 11,9 km/h (2 Bft)
01.12.2021 09:50 5,6 C 7,5 C 4,9 C 5,4 C 4,9 C 0,0 C 87 % 93 % 999,6 hPa 0,0 l/m 6,1 km/h (2 Bft) W 270 0 min 3,6 C 3,6 C 5,8 km/h (2 Bft)
01.12.2021 09:55 5,7 C 7,5 C 5,0 C 5,4 C 4,8 C 0,0 C 87 % 93 % 999,6 hPa 0,0 l/m 7,1 km/h (2 Bft) S 180 0 min 3,7 C 3,1 C 11,1 km/h (2 Bft)
01.12.2021 10:00 5,7 C 7,5 C 5,0 C 5,6 C 4,7 C 0,0 C 87 % 92 % 999,6 hPa 0,0 l/m 8,0 km/h (2 Bft) W-SW 247 0 min 3,7 C 2,8 C 14,8 km/h (3 Bft)
01.12.2021 10:05 5,9 C 7,5 C 5,1 C 5,7 C 4,8 C 0,0 C 87 % 92 % 999,6 hPa 0,0 l/m 8,4 km/h (2 Bft) W-SW 247 0 min 3,9 C 2,8 C 5,3 km/h (1 Bft)
01.12.2021 10:10 5,9 C 7,5 C 5,2 C 5,8 C 5,0 C 0,0 C 86 % 92 % 999,9 hPa 0,0 l/m 7,9 km/h (2 Bft) N-NW 337 0 min 3,7 C 3,2 C 12,1 km/h (2 Bft)
01.12.2021 10:15 6,0 C 7,5 C 5,4 C 5,9 C 5,1 C 0,0 C 86 % 91 % 999,9 hPa 0,0 l/m 8,9 km/h (2 Bft) SW 225 0 min 3,8 C 3,0 C 31,9 km/h (5 Bft)
01.12.2021 10:20 6,0 C 7,5 C 5,5 C 5,9 C 4,8 C 0,0 C 85 % 91 % 999,9 hPa 0,0 l/m 10,6 km/h (2 Bft) SO 135 0 min 3,7 C 2,3 C 4,3 km/h (1 Bft)
01.12.2021 10:25 6,1 C 7,5 C 5,6 C 5,9 C 5,1 C 0,0 C 85 % 90 % 999,9 hPa 0,0 l/m 9,2 km/h (2 Bft) SW 225 0 min 3,8 C 3,0 C 8,9 km/h (2 Bft)
01.12.2021 10:30 6,1 C 7,5 C 5,7 C 6,0 C 5,4 C 0,0 C 85 % 90 % 998,9 hPa 0,0 l/m 8,4 km/h (2 Bft) S 180 0 min 3,8 C 3,5 C 21,1 km/h (4 Bft)
01.12.2021 10:35 6,3 C 7,5 C 5,8 C 6,0 C 5,4 C 0,0 C 85 % 89 % 998,9 hPa 0,0 l/m 9,0 km/h (2 Bft) S-SW 202 0 min 4,0 C 3,4 C 11,9 km/h (2 Bft)
01.12.2021 10:40 6,3 C 7,5 C 5,9 C 6,0 C 5,4 C 0,0 C 85 % 89 % 998,9 hPa 0,0 l/m 9,5 km/h (2 Bft) S-SW 202 0 min 4,0 C 3,2 C 25,3 km/h (4 Bft)
01.12.2021 10:45 6,3 C 7,5 C 5,9 C 6,2 C 5,2 C 0,0 C 85 % 89 % 998,9 hPa 0,0 l/m 10,8 km/h (2 Bft) S-SO 157 0 min 4,0 C 2,7 C 9,3 km/h (2 Bft)
01.12.2021 10:50 6,3 C 7,5 C 5,9 C 6,2 C 5,4 C 0,0 C 84 % 89 % 998,8 hPa 0,0 l/m 9,8 km/h (2 Bft) S 180 0 min 3,8 C 3,2 C 7,7 km/h (2 Bft)
01.12.2021 10:55 6,4 C 7,4 C 6,0 C 6,3 C 6,0 C 0,0 C 84 % 89 % 998,8 hPa 0,0 l/m 7,6 km/h (2 Bft) S-SW 202 0 min 3,9 C 4,4 C 6,4 km/h (2 Bft)
01.12.2021 11:00 6,5 C 7,4 C 6,0 C 6,4 C 5,8 C 0,0 C 84 % 89 % 998,8 hPa 0,0 l/m 7,9 km/h (2 Bft) W-SW 247 0 min 4,0 C 4,1 C 26,7 km/h (4 Bft)
01.12.2021 11:05 6,4 C 7,4 C 5,9 C 6,2 C 5,9 C 0,0 C 84 % 88 % 998,8 hPa 0,0 l/m 7,4 km/h (2 Bft) SW 225 0 min 3,9 C 4,3 C 5,3 km/h (1 Bft)
01.12.2021 11:10 6,5 C 7,4 C 6,0 C 6,4 C 5,6 C 0,0 C 84 % 88 % 998,7 hPa 0,0 l/m 8,7 km/h (2 Bft) SW 225 0 min 4,0 C 3,7 C 21,1 km/h (4 Bft)
01.12.2021 11:15 6,4 C 7,4 C 6,0 C 6,3 C 5,3 C 0,0 C 83 % 88 % 998,7 hPa 0,0 l/m 10,3 km/h (2 Bft) W-SW 247 0 min 3,7 C 3,0 C 7,6 km/h (2 Bft)
01.12.2021 11:20 6,4 C 7,4 C 6,0 C 6,0 C 5,3 C 0,0 C 83 % 87 % 998,7 hPa 0,0 l/m 10,0 km/h (2 Bft) SO 135 0 min 3,7 C 3,0 C 18,2 km/h (3 Bft)
01.12.2021 11:25 6,4 C 7,4 C 6,1 C 6,2 C 5,9 C 0,0 C 83 % 87 % 998,7 hPa 0,0 l/m 7,6 km/h (2 Bft) O-SO 112 0 min 3,7 C 4,3 C 16,1 km/h (3 Bft)
01.12.2021 11:30 6,5 C 7,4 C 6,3 C 6,5 C 5,8 C 0,0 C 83 % 87 % 997,8 hPa 0,0 l/m 8,5 km/h (2 Bft) N 360 0 min 3,8 C 4,0 C 15,8 km/h (3 Bft)
01.12.2021 11:35 6,7 C 7,4 C 6,4 C 6,7 C 6,2 C 0,0 C 83 % 87 % 997,8 hPa 0,0 l/m 8,9 km/h (2 Bft) SO 135 0 min 4,0 C 4,3 C 14,2 km/h (3 Bft)
01.12.2021 11:40 6,7 C 7,4 C 6,5 C 6,8 C 6,3 C 0,1 C 83 % 86 % 997,8 hPa 0,0 l/m 9,2 km/h (2 Bft) S-SO 157 0 min 4,0 C 4,4 C 16,4 km/h (3 Bft)
01.12.2021 11:45 6,7 C 7,4 C 6,7 C 6,8 C 6,2 C 0,1 C 83 % 85 % 997,8 hPa 0,0 l/m 9,3 km/h (2 Bft) S-SO 157 0 min 4,0 C 4,2 C 12,4 km/h (3 Bft)
01.12.2021 11:50 6,8 C 7,4 C 6,7 C 6,9 C 6,4 C 0,1 C 82 % 85 % 997,6 hPa 0,0 l/m 10,6 km/h (2 Bft) S 180 0 min 3,9 C 4,2 C 11,9 km/h (2 Bft)
01.12.2021 11:55 6,9 C 7,4 C 6,8 C 6,7 C 6,4 C 0,0 C 82 % 85 % 997,6 hPa 0,0 l/m 10,5 km/h (2 Bft) O 90 0 min 4,0 C 4,2 C 17,1 km/h (3 Bft)
01.12.2021 12:00 6,9 C 7,4 C 6,7 C 7,0 C 6,6 C 0,1 C 82 % 85 % 997,6 hPa 0,0 l/m 8,9 km/h (2 Bft) W-NW 292 0 min 4,0 C 4,8 C 11,9 km/h (2 Bft)
01.12.2021 12:05 6,9 C 7,4 C 6,7 C 7,0 C 6,5 C 0,1 C 82 % 85 % 997,6 hPa 0,0 l/m 8,9 km/h (2 Bft) SO 135 0 min 4,0 C 4,7 C 19,3 km/h (3 Bft)
01.12.2021 12:10 6,9 C 7,4 C 6,7 C 6,8 C 6,5 C 0,0 C 82 % 85 % 997,3 hPa 0,0 l/m 8,9 km/h (2 Bft) SO 135 0 min 4,0 C 4,7 C 19,3 km/h (3 Bft)
01.12.2021 12:15 7,0 C 7,4 C 6,8 C 6,9 C 6,7 C 0,0 C 81 % 85 % 997,3 hPa 0,0 l/m 7,6 km/h (2 Bft) SW 225 0 min 4,0 C 5,2 C 6,4 km/h (2 Bft)
01.12.2021 12:20 7,0 C 7,4 C 6,7 C 6,9 C 6,7 C 0,0 C 81 % 85 % 997,3 hPa 0,0 l/m 7,2 km/h (2 Bft) SW 225 0 min 4,0 C 5,3 C 13,2 km/h (3 Bft)
01.12.2021 12:25 7,1 C 7,4 C 6,7 C 7,1 C 6,5 C 0,0 C 81 % 85 % 997,3 hPa 0,0 l/m 8,0 km/h (2 Bft) SO 135 0 min 4,1 C 4,9 C 5,0 km/h (1 Bft)
01.12.2021 12:30 7,1 C 7,4 C 6,7 C 7,1 C 6,6 C 0,0 C 81 % 85 % 997,2 hPa 0,0 l/m 7,7 km/h (2 Bft) S 180 0 min 4,1 C 5,1 C 10,8 km/h (2 Bft)
01.12.2021 12:35 7,1 C 7,4 C 6,8 C 7,1 C 6,4 C 0,0 C 81 % 84 % 997,2 hPa 0,0 l/m 8,4 km/h (2 Bft) S-SO 157 0 min 4,1 C 4,7 C 12,2 km/h (2 Bft)
01.12.2021 12:40 7,2 C 7,4 C 6,8 C 6,9 C 6,4 C 0,0 C 81 % 84 % 997,2 hPa 0,0 l/m 8,5 km/h (2 Bft) S-SW 202 0 min 4,2 C 4,7 C 10,6 km/h (2 Bft)
01.12.2021 12:45 7,2 C 7,4 C 6,9 C 7,1 C 6,5 C 0,0 C 81 % 84 % 997,2 hPa 0,0 l/m 8,0 km/h (2 Bft) SW 225 0 min 4,2 C 4,9 C 19,6 km/h (3 Bft)
01.12.2021 12:50 7,3 C 7,4 C 6,9 C 7,2 C 6,3 C 0,0 C 81 % 84 % 996,6 hPa 0,0 l/m 9,8 km/h (2 Bft) O-SO 112 0 min 4,3 C 4,3 C 17,7 km/h (3 Bft)
01.12.2021 12:55 7,2 C 7,4 C 6,9 C 7,1 C 6,0 C 0,0 C 81 % 84 % 996,6 hPa 0,0 l/m 11,3 km/h (2 Bft) SW 225 0 min 4,2 C 3,6 C 12,2 km/h (2 Bft)
01.12.2021 13:00 7,2 C 7,4 C 6,9 C 7,1 C 6,4 C 0,0 C 81 % 84 % 996,6 hPa 0,0 l/m 9,2 km/h (2 Bft) NO 45 0 min 4,2 C 4,5 C 4,8 km/h (1 Bft)
01.12.2021 13:05 7,3 C 7,4 C 7,0 C 7,2 C 7,1 C 0,0 C 81 % 84 % 996,6 hPa 0,0 l/m 7,1 km/h (2 Bft) NW 315 0 min 4,3 C 5,8 C 10,0 km/h (2 Bft)
01.12.2021 13:10 7,3 C 7,4 C 7,1 C 7,3 C 7,2 C 0,0 C 81 % 84 % 996,2 hPa 0,0 l/m 6,9 km/h (2 Bft) SW 225 0 min 4,3 C 6,0 C 8,9 km/h (2 Bft)
01.12.2021 13:15 7,3 C 7,4 C 7,2 C 7,3 C 7,3 C 0,0 C 81 % 83 % 996,2 hPa 0,0 l/m 7,1 km/h (2 Bft) O-SO 112 0 min 4,3 C 6,1 C 12,4 km/h (3 Bft)
01.12.2021 13:20 7,5 C 7,4 C 7,2 C 7,4 C 7,3 C 0,0 C 81 % 84 % 996,2 hPa 0,0 l/m 6,9 km/h (2 Bft) S-SO 157 0 min 4,5 C 6,1 C 11,9 km/h (2 Bft)
01.12.2021 13:25 7,5 C 7,4 C 7,2 C 7,4 C 7,2 C 0,0 C 81 % 83 % 996,2 hPa 0,0 l/m 7,4 km/h (2 Bft) SW 225 0 min 4,5 C 5,9 C 9,8 km/h (2 Bft)
01.12.2021 13:30 7,5 C 7,4 C 7,2 C 7,4 C 7,2 C 0,0 C 81 % 83 % 996,4 hPa 0,0 l/m 7,4 km/h (2 Bft) N-NO 22 0 min 4,5 C 5,9 C 3,5 km/h (1 Bft)
01.12.2021 13:35 7,4 C 7,4 C 7,1 C 7,3 C 7,2 C 0,0 C 81 % 83 % 996,4 hPa 0,0 l/m 7,1 km/h (2 Bft) S 180 0 min 4,4 C 5,9 C 10,9 km/h (2 Bft)
01.12.2021 13:40 7,5 C 7,4 C 7,2 C 7,5 C 7,4 C 0,0 C 81 % 83 % 996,4 hPa 0,0 l/m 6,1 km/h (2 Bft) SO 135 0 min 4,5 C 6,5 C 4,7 km/h (1 Bft)
01.12.2021 13:45 7,5 C 7,4 C 7,2 C 7,5 C 7,5 C 0,0 C 81 % 83 % 996,4 hPa 0,0 l/m 6,3 km/h (2 Bft) W-NW 292 0 min 4,5 C 6,5 C 6,3 km/h (2 Bft)
01.12.2021 13:50 7,6 C 7,4 C 7,3 C 7,5 C 7,4 C 0,0 C 80 % 83 % 995,7 hPa 0,0 l/m 6,8 km/h (2 Bft) O-NO 67 0 min 4,4 C 6,3 C 6,9 km/h (2 Bft)
01.12.2021 13:55 7,6 C 7,4 C 7,3 C 7,7 C 7,7 C 0,1 C 80 % 83 % 995,7 hPa 0,0 l/m 6,3 km/h (2 Bft) O-SO 112 0 min 4,4 C 6,7 C 5,1 km/h (1 Bft)
01.12.2021 14:00 7,6 C 7,4 C 7,3 C 7,5 C 7,4 C 0,0 C 80 % 83 % 995,7 hPa 0,0 l/m 6,6 km/h (2 Bft) O 90 0 min 4,4 C 6,3 C 7,9 km/h (2 Bft)
01.12.2021 14:05 7,7 C 7,4 C 7,3 C 7,7 C 7,1 C 0,0 C 80 % 83 % 995,7 hPa 0,0 l/m 8,4 km/h (2 Bft) SO 135 0 min 4,5 C 5,5 C 18,2 km/h (3 Bft)
01.12.2021 14:10 7,7 C 7,4 C 7,4 C 7,5 C 7,1 C 0,0 C 80 % 83 % 995,3 hPa 0,0 l/m 8,4 km/h (2 Bft) S 180 0 min 4,5 C 5,5 C 6,9 km/h (2 Bft)
01.12.2021 14:15 7,6 C 7,4 C 7,4 C 7,4 C 7,1 C 0,0 C 80 % 83 % 995,3 hPa 0,0 l/m 9,2 km/h (2 Bft) SO 135 0 min 4,4 C 5,3 C 16,9 km/h (3 Bft)
01.12.2021 14:20 7,7 C 7,4 C 7,5 C 7,9 C 7,6 C 0,2 C 80 % 83 % 995,3 hPa 0,0 l/m 8,4 km/h (2 Bft) S-SW 202 0 min 4,5 C 6,1 C 6,9 km/h (2 Bft)
01.12.2021 14:25 7,8 C 7,4 C 7,5 C 8,4 C 8,3 C 0,6 C 80 % 83 % 995,3 hPa 0,0 l/m 7,9 km/h (2 Bft) NW 315 0 min 4,6 C 7,0 C 4,8 km/h (1 Bft)
01.12.2021 14:30 7,8 C 7,4 C 7,6 C 8,8 C 8,4 C 1,0 C 80 % 83 % 994,8 hPa 0,0 l/m 8,9 km/h (2 Bft) S 180 0 min 4,6 C 6,9 C 18,7 km/h (3 Bft)
01.12.2021 14:35 7,9 C 7,4 C 7,5 C 8,4 C 7,7 C 0,5 C 80 % 83 % 994,8 hPa 0,0 l/m 10,0 km/h (2 Bft) SW 225 0 min 4,7 C 5,9 C 21,6 km/h (4 Bft)
01.12.2021 14:40 7,9 C 7,4 C 7,4 C 7,9 C 7,2 C 0,0 C 80 % 83 % 994,8 hPa 0,0 l/m 10,0 km/h (2 Bft) S 180 0 min 4,7 C 5,3 C 19,8 km/h (3 Bft)
01.12.2021 14:45 7,9 C 7,4 C 7,4 C 7,8 C 7,3 C 0,0 C 80 % 83 % 994,8 hPa 0,0 l/m 8,5 km/h (2 Bft) W-NW 292 0 min 4,7 C 5,7 C 3,5 km/h (1 Bft)
01.12.2021 14:50 7,9 C 7,4 C 7,3 C 7,7 C 7,3 C 0,0 C 80 % 83 % 994,7 hPa 0,0 l/m 7,7 km/h (2 Bft) W-SW 247 0 min 4,7 C 5,9 C 9,2 km/h (2 Bft)
01.12.2021 14:55 7,7 C 7,4 C 7,2 C 7,6 C 6,9 C 0,0 C 80 % 83 % 994,7 hPa 0,0 l/m 8,2 km/h (2 Bft) W-NW 292 0 min 4,5 C 5,3 C 20,8 km/h (4 Bft)
01.12.2021 15:00 7,7 C 7,4 C 7,2 C 7,4 C 6,9 C 0,0 C 80 % 83 % 994,7 hPa 0,0 l/m 8,2 km/h (2 Bft) SW 225 0 min 4,5 C 5,3 C 9,3 km/h (2 Bft)
01.12.2021 15:05 7,7 C 7,4 C 7,2 C 7,5 C 7,2 C 0,0 C 81 % 84 % 994,7 hPa 0,0 l/m 6,8 km/h (2 Bft) W-SW 247 0 min 4,7 C 6,0 C 9,0 km/h (2 Bft)
01.12.2021 15:10 7,7 C 7,4 C 7,3 C 7,6 C 7,3 C 0,0 C 81 % 84 % 994,6 hPa 0,0 l/m 6,4 km/h (2 Bft) W 270 0 min 4,7 C 6,3 C 6,4 km/h (2 Bft)
01.12.2021 15:15 7,8 C 7,4 C 7,2 C 7,7 C 6,8 C 0,0 C 81 % 84 % 994,6 hPa 0,0 l/m 8,4 km/h (2 Bft) S 180 0 min 4,7 C 5,2 C 13,0 km/h (3 Bft)
01.12.2021 15:20 7,9 C 7,4 C 7,3 C 7,6 C 7,1 C 0,0 C 81 % 84 % 994,6 hPa 0,0 l/m 7,4 km/h (2 Bft) S 180 0 min 4,8 C 5,7 C 11,4 km/h (2 Bft)
01.12.2021 15:25 7,9 C 7,4 C 7,3 C 7,7 C 7,2 C 0,0 C 81 % 84 % 994,6 hPa 0,0 l/m 6,6 km/h (2 Bft) S 180 0 min 4,8 C 6,1 C 10,6 km/h (2 Bft)
01.12.2021 15:30 7,9 C 7,4 C 7,3 C 7,7 C 7,2 C 0,0 C 81 % 84 % 994,2 hPa 0,0 l/m 6,8 km/h (2 Bft) S 180 0 min 4,8 C 6,0 C 15,6 km/h (3 Bft)
01.12.2021 15:35 7,9 C 7,4 C 7,3 C 7,7 C 7,3 C 0,0 C 81 % 84 % 994,2 hPa 0,0 l/m 6,4 km/h (2 Bft) W-NW 292 0 min 4,8 C 6,3 C 9,3 km/h (2 Bft)
01.12.2021 15:40 7,9 C 7,4 C 7,4 C 7,7 C 7,3 C 0,0 C 81 % 84 % 994,2 hPa 0,0 l/m 6,9 km/h (2 Bft) S-SO 157 0 min 4,8 C 6,1 C 10,9 km/h (2 Bft)
01.12.2021 15:45 8,0 C 7,4 C 7,4 C 7,8 C 7,3 C 0,0 C 81 % 84 % 994,2 hPa 0,0 l/m 6,4 km/h (2 Bft) S-SO 157 0 min 4,9 C 6,3 C 7,1 km/h (2 Bft)
01.12.2021 15:50 7,9 C 7,4 C 7,3 C 7,8 C 7,5 C 0,0 C 81 % 84 % 994,1 hPa 0,0 l/m 6,0 km/h (2 Bft) O 90 0 min 4,8 C 6,6 C 11,9 km/h (2 Bft)
01.12.2021 15:55 8,0 C 7,4 C 7,3 C 7,9 C 7,8 C 0,0 C 80 % 84 % 994,1 hPa 0,0 l/m 4,8 km/h (1 Bft) O 90 0 min 4,8 C 7,3 C 1,9 km/h (1 Bft)
01.12.2021 16:00 7,9 C 7,4 C 7,1 C 7,7 C 7,4 C 0,0 C 80 % 84 % 994,1 hPa 0,0 l/m 5,1 km/h (1 Bft) NW 315 0 min 4,7 C 6,8 C 4,7 km/h (1 Bft)
01.12.2021 16:05 7,9 C 7,4 C 7,1 C 7,5 C 6,8 C 0,0 C 80 % 84 % 994,1 hPa 0,0 l/m 6,6 km/h (2 Bft) SW 225 0 min 4,7 C 5,6 C 12,1 km/h (2 Bft)
01.12.2021 16:10 7,9 C 7,4 C 7,2 C 7,5 C 6,7 C 0,0 C 80 % 84 % 993,8 hPa 0,0 l/m 7,1 km/h (2 Bft) SW 225 0 min 4,7 C 5,4 C 9,2 km/h (2 Bft)
01.12.2021 16:15 8,0 C 7,4 C 7,2 C 7,7 C 6,4 C 0,0 C 80 % 84 % 993,8 hPa 0,0 l/m 8,5 km/h (2 Bft) SW 225 0 min 4,8 C 4,7 C 16,7 km/h (3 Bft)
01.12.2021 16:20 8,0 C 7,5 C 7,1 C 7,6 C 6,3 C 0,0 C 80 % 84 % 993,8 hPa 0,0 l/m 9,0 km/h (2 Bft) S 180 0 min 4,8 C 4,4 C 12,7 km/h (3 Bft)
01.12.2021 16:25 7,9 C 7,5 C 7,0 C 7,5 C 6,4 C 0,0 C 80 % 85 % 993,8 hPa 0,0 l/m 8,0 km/h (2 Bft) W 270 0 min 4,7 C 4,8 C 9,2 km/h (2 Bft)
01.12.2021 16:30 7,9 C 7,5 C 7,0 C 7,5 C 6,3 C 0,0 C 81 % 85 % 993,4 hPa 0,0 l/m 8,2 km/h (2 Bft) S-SO 157 0 min 4,8 C 4,6 C 10,8 km/h (2 Bft)
01.12.2021 16:35 7,9 C 7,5 C 7,0 C 7,5 C 6,2 C 0,0 C 81 % 85 % 993,4 hPa 0,0 l/m 7,9 km/h (2 Bft) W-SW 247 0 min 4,8 C 4,6 C 12,7 km/h (3 Bft)
01.12.2021 16:40 7,8 C 7,5 C 7,0 C 7,4 C 6,5 C 0,0 C 81 % 85 % 993,4 hPa 0,0 l/m 6,8 km/h (2 Bft) O-SO 112 0 min 4,7 C 5,2 C 2,7 km/h (1 Bft)
01.12.2021 16:45 7,9 C 7,5 C 7,1 C 7,5 C 6,7 C 0,0 C 81 % 85 % 993,4 hPa 0,0 l/m 6,8 km/h (2 Bft) S-SO 157 0 min 4,8 C 5,4 C 20,1 km/h (4 Bft)
01.12.2021 16:50 7,9 C 7,5 C 7,2 C 7,5 C 6,6 C 0,0 C 81 % 85 % 993,3 hPa 0,0 l/m 7,6 km/h (2 Bft) W-SW 247 0 min 4,8 C 5,1 C 15,9 km/h (3 Bft)
01.12.2021 16:55 8,0 C 7,5 C 7,1 C 7,7 C 6,3 C 0,0 C 81 % 85 % 993,3 hPa 0,0 l/m 9,8 km/h (2 Bft) S-SO 157 0 min 4,9 C 4,3 C 14,3 km/h (3 Bft)
01.12.2021 17:00 8,1 C 7,5 C 7,2 C 7,7 C 6,6 C 0,0 C 81 % 85 % 993,3 hPa 0,0 l/m 9,0 km/h (2 Bft) W 270 0 min 5,0 C 4,8 C 12,2 km/h (2 Bft)
01.12.2021 17:05 8,0 C 7,5 C 7,1 C 7,6 C 6,8 C 0,0 C 81 % 85 % 993,3 hPa 0,0 l/m 7,4 km/h (2 Bft) SW 225 0 min 4,9 C 5,4 C 9,0 km/h (2 Bft)
01.12.2021 17:10 7,9 C 7,5 C 7,1 C 7,6 C 7,1 C 0,0 C 82 % 85 % 993,2 hPa 0,0 l/m 6,1 km/h (2 Bft) S 180 0 min 5,0 C 6,1 C 6,3 km/h (2 Bft)
01.12.2021 17:15 7,9 C 7,5 C 7,2 C 7,6 C 7,0 C 0,0 C 82 % 86 % 993,2 hPa 0,0 l/m 6,1 km/h (2 Bft) S-SO 157 0 min 5,0 C 6,0 C 4,5 km/h (1 Bft)
01.12.2021 17:20 7,9 C 7,5 C 7,2 C 7,6 C 7,0 C 0,0 C 82 % 86 % 993,2 hPa 0,0 l/m 6,6 km/h (2 Bft) SW 225 0 min 5,0 C 5,8 C 9,0 km/h (2 Bft)
01.12.2021 17:25 8,0 C 7,5 C 7,3 C 7,7 C 7,2 C 0,0 C 82 % 86 % 993,2 hPa 0,0 l/m 6,1 km/h (2 Bft) S-SO 157 0 min 5,1 C 6,2 C 9,3 km/h (2 Bft)
01.12.2021 17:30 8,0 C 7,5 C 7,3 C 7,7 C 7,2 C 0,0 C 82 % 86 % 993,1 hPa 0,0 l/m 6,6 km/h (2 Bft) W-NW 292 0 min 5,1 C 6,1 C 11,6 km/h (2 Bft)
01.12.2021 17:35 8,0 C 7,5 C 7,4 C 7,7 C 7,2 C 0,0 C 82 % 86 % 993,1 hPa 0,0 l/m 6,9 km/h (2 Bft) S-SO 157 0 min 5,1 C 6,0 C 6,0 km/h (2 Bft)
01.12.2021 17:40 8,0 C 7,6 C 7,4 C 7,8 C 7,3 C 0,0 C 82 % 86 % 993,1 hPa 0,0 l/m 6,8 km/h (2 Bft) S 180 0 min 5,1 C 6,1 C 10,8 km/h (2 Bft)
01.12.2021 17:45 8,0 C 7,6 C 7,4 C 7,8 C 7,3 C 0,0 C 82 % 86 % 993,1 hPa 0,0 l/m 6,4 km/h (2 Bft) W-SW 247 0 min 5,1 C 6,3 C 14,2 km/h (3 Bft)
01.12.2021 17:50 8,0 C 7,6 C 7,4 C 7,7 C 7,2 C 0,0 C 82 % 86 % 993,3 hPa 0,0 l/m 7,2 km/h (2 Bft) S 180 0 min 5,1 C 5,9 C 7,9 km/h (2 Bft)
01.12.2021 17:55 8,0 C 7,6 C 7,5 C 7,8 C 7,4 C 0,0 C 82 % 85 % 993,3 hPa 0,0 l/m 6,4 km/h (2 Bft) W-SW 247 0 min 5,1 C 6,4 C 4,8 km/h (1 Bft)
01.12.2021 18:00 8,0 C 7,6 C 7,5 C 7,8 C 7,5 C 0,0 C 82 % 85 % 993,3 hPa 0,0 l/m 6,3 km/h (2 Bft) W-NW 292 0 min 5,1 C 6,5 C 7,7 km/h (2 Bft)
01.12.2021 18:05 8,0 C 7,6 C 7,4 C 7,8 C 7,3 C 0,0 C 82 % 85 % 993,3 hPa 0,0 l/m 6,4 km/h (2 Bft) S-SO 157 0 min 5,1 C 6,3 C 9,7 km/h (2 Bft)
01.12.2021 18:10 8,0 C 7,6 C 7,3 C 7,8 C 7,3 C 0,0 C 82 % 85 % 992,6 hPa 0,0 l/m 6,3 km/h (2 Bft) N-NW 337 0 min 5,1 C 6,3 C 9,7 km/h (2 Bft)
01.12.2021 18:15 8,0 C 7,6 C 7,3 C 7,7 C 7,2 C 0,0 C 82 % 86 % 992,6 hPa 0,0 l/m 6,1 km/h (2 Bft) O 90 0 min 5,1 C 6,2 C 5,3 km/h (1 Bft)
01.12.2021 18:20 8,0 C 7,6 C 7,3 C 7,7 C 7,1 C 0,0 C 82 % 86 % 992,6 hPa 0,0 l/m 6,8 km/h (2 Bft) SO 135 0 min 5,1 C 5,9 C 14,0 km/h (3 Bft)
01.12.2021 18:25 8,1 C 7,6 C 7,5 C 7,9 C 7,4 C 0,0 C 82 % 86 % 992,6 hPa 0,0 l/m 6,1 km/h (2 Bft) S 180 0 min 5,2 C 6,5 C 4,0 km/h (1 Bft)
01.12.2021 18:30 8,1 C 7,6 C 7,4 C 7,9 C 7,5 C 0,0 C 82 % 86 % 993,0 hPa 0,0 l/m 5,8 km/h (2 Bft) O-SO 112 0 min 5,2 C 6,7 C 5,1 km/h (1 Bft)
01.12.2021 18:35 8,1 C 7,6 C 7,4 C 7,8 C 7,3 C 0,0 C 82 % 86 % 993,0 hPa 0,0 l/m 6,4 km/h (2 Bft) S-SW 202 0 min 5,2 C 6,3 C 12,7 km/h (3 Bft)
01.12.2021 18:40 8,1 C 7,6 C 7,4 C 7,8 C 7,3 C 0,0 C 82 % 86 % 993,0 hPa 0,0 l/m 6,6 km/h (2 Bft) N-NO 22 0 min 5,2 C 6,2 C 6,4 km/h (2 Bft)
01.12.2021 18:45 8,1 C 7,6 C 7,4 C 7,9 C 7,5 C 0,0 C 82 % 86 % 993,0 hPa 0,0 l/m 5,8 km/h (2 Bft) S 180 0 min 5,2 C 6,7 C 9,3 km/h (2 Bft)
01.12.2021 18:50 8,1 C 7,6 C 7,5 C 7,9 C 7,5 C 0,0 C 82 % 86 % 992,6 hPa 0,0 l/m 5,6 km/h (1 Bft) S-SW 202 0 min 5,2 C 6,7 C 14,5 km/h (3 Bft)
01.12.2021 18:55 8,2 C 7,7 C 7,4 C 8,0 C 7,5 C 0,0 C 82 % 86 % 992,6 hPa 0,0 l/m 5,8 km/h (2 Bft) W-SW 247 0 min 5,3 C 6,7 C 10,5 km/h (2 Bft)
01.12.2021 19:00 8,1 C 7,7 C 7,4 C 7,6 C 6,7 C 0,0 C 83 % 87 % 992,6 hPa 0,0 l/m 7,2 km/h (2 Bft) SW 225 0 min 5,4 C 5,3 C 7,7 km/h (2 Bft)
01.12.2021 19:05 8,1 C 7,7 C 7,3 C 7,5 C 6,3 C 0,0 C 83 % 87 % 992,6 hPa 0,0 l/m 7,6 km/h (2 Bft) W-SW 247 0 min 5,4 C 4,8 C 9,8 km/h (2 Bft)
01.12.2021 19:10 8,1 C 7,7 C 7,3 C 7,5 C 6,2 C 0,0 C 83 % 87 % 992,4 hPa 0,0 l/m 6,9 km/h (2 Bft) SW 225 0 min 5,4 C 4,8 C 6,1 km/h (2 Bft)
01.12.2021 19:15 8,1 C 7,7 C 7,4 C 7,4 C 6,0 C 0,0 C 83 % 86 % 992,4 hPa 0,0 l/m 7,6 km/h (2 Bft) W-SW 247 0 min 5,4 C 4,4 C 12,7 km/h (3 Bft)
01.12.2021 19:20 8,2 C 7,7 C 7,3 C 7,5 C 6,0 C 0,0 C 83 % 86 % 992,4 hPa 0,0 l/m 7,6 km/h (2 Bft) O-SO 112 0 min 5,5 C 4,4 C 8,0 km/h (2 Bft)
01.12.2021 19:25 8,2 C 7,7 C 7,3 C 7,6 C 6,5 C 0,0 C 82 % 86 % 992,4 hPa 0,0 l/m 6,8 km/h (2 Bft) S-SW 202 0 min 5,3 C 5,2 C 6,4 km/h (2 Bft)
01.12.2021 19:30 8,3 C 7,7 C 7,4 C 7,8 C 6,8 C 0,0 C 82 % 86 % 993,1 hPa 0,0 l/m 6,3 km/h (2 Bft) W 270 0 min 5,4 C 5,7 C 10,5 km/h (2 Bft)
01.12.2021 19:35 8,2 C 7,7 C 7,4 C 7,8 C 7,0 C 0,0 C 82 % 86 % 993,1 hPa 0,0 l/m 6,9 km/h (2 Bft) SO 135 0 min 5,3 C 5,8 C 10,0 km/h (2 Bft)
01.12.2021 19:40 8,2 C 7,7 C 7,4 C 7,8 C 7,0 C 0,0 C 82 % 86 % 993,1 hPa 0,0 l/m 7,6 km/h (2 Bft) SO 135 0 min 5,3 C 5,6 C 10,9 km/h (2 Bft)
01.12.2021 19:45 8,3 C 7,7 C 7,3 C 8,0 C 6,7 C 0,0 C 82 % 86 % 993,1 hPa 0,0 l/m 9,3 km/h (2 Bft) W-SW 247 0 min 5,4 C 4,8 C 25,3 km/h (4 Bft)
01.12.2021 19:50 8,3 C 7,7 C 7,3 C 7,9 C 6,8 C 0,0 C 81 % 85 % 993,0 hPa 0,0 l/m 8,7 km/h (2 Bft) SW 225 0 min 5,2 C 5,1 C 18,7 km/h (3 Bft)
01.12.2021 19:55 8,3 C 7,7 C 7,3 C 7,9 C 6,7 C 0,0 C 81 % 85 % 993,0 hPa 0,0 l/m 8,9 km/h (2 Bft) O-NO 67 0 min 5,2 C 4,9 C 10,5 km/h (2 Bft)
01.12.2021 20:00 8,3 C 7,7 C 7,4 C 7,9 C 6,6 C 0,0 C 81 % 85 % 993,0 hPa 0,0 l/m 9,8 km/h (2 Bft) NO 45 0 min 5,2 C 4,6 C 11,4 km/h (2 Bft)
01.12.2021 20:05 8,3 C 7,7 C 7,5 C 7,9 C 6,5 C 0,0 C 80 % 85 % 993,0 hPa 0,0 l/m 10,9 km/h (2 Bft) S-SW 202 0 min 5,1 C 4,3 C 10,9 km/h (2 Bft)
01.12.2021 20:10 8,4 C 7,7 C 7,5 C 8,0 C 6,6 C 0,0 C 81 % 85 % 993,2 hPa 0,0 l/m 11,3 km/h (2 Bft) W-SW 247 0 min 5,3 C 4,3 C 14,8 km/h (3 Bft)
01.12.2021 20:15 8,3 C 7,7 C 7,5 C 8,0 C 7,1 C 0,0 C 80 % 85 % 993,2 hPa 0,0 l/m 9,5 km/h (2 Bft) W 270 0 min 5,1 C 5,3 C 7,1 km/h (2 Bft)
01.12.2021 20:20 8,4 C 7,7 C 7,5 C 8,1 C 6,9 C 0,0 C 81 % 85 % 993,2 hPa 0,0 l/m 10,1 km/h (2 Bft) SW 225 0 min 5,3 C 4,9 C 12,1 km/h (2 Bft)
01.12.2021 20:25 8,4 C 7,7 C 7,5 C 7,9 C 6,9 C 0,0 C 81 % 84 % 993,2 hPa 0,0 l/m 10,3 km/h (2 Bft) W 270 0 min 5,3 C 4,9 C 10,9 km/h (2 Bft)
01.12.2021 20:30 8,4 C 7,9 C 7,5 C 8,0 C 6,6 C 0,0 C 81 % 85 % 993,6 hPa 0,0 l/m 10,6 km/h (2 Bft) W-SW 247 0 min 5,3 C 4,5 C 15,4 km/h (3 Bft)
01.12.2021 20:35 8,3 C 7,9 C 7,5 C 7,9 C 6,4 C 0,0 C 80 % 85 % 993,6 hPa 0,0 l/m 10,6 km/h (2 Bft) W-SW 247 0 min 5,1 C 4,2 C 11,3 km/h (2 Bft)
01.12.2021 20:40 8,3 C 7,9 C 7,4 C 7,7 C 6,4 C 0,0 C 80 % 85 % 993,6 hPa 0,0 l/m 10,3 km/h (2 Bft) W-SW 247 0 min 5,1 C 4,3 C 11,3 km/h (2 Bft)
01.12.2021 20:45 8,3 C 7,9 C 7,4 C 7,9 C 6,3 C 0,0 C 80 % 85 % 993,6 hPa 0,0 l/m 11,1 km/h (2 Bft) SW 225 0 min 5,1 C 4,0 C 16,4 km/h (3 Bft)
01.12.2021 20:50 8,3 C 7,9 C 7,4 C 7,9 C 6,5 C 0,0 C 80 % 85 % 993,7 hPa 0,0 l/m 11,1 km/h (2 Bft) W-NW 292 0 min 5,1 C 4,2 C 9,3 km/h (2 Bft)
01.12.2021 20:55 8,3 C 7,9 C 7,3 C 7,9 C 6,4 C 0,0 C 80 % 84 % 993,7 hPa 0,0 l/m 10,9 km/h (2 Bft) W-SW 247 0 min 5,1 C 4,2 C 16,3 km/h (3 Bft)
01.12.2021 21:00 8,2 C 7,9 C 7,2 C 7,8 C 6,2 C 0,0 C 80 % 84 % 993,7 hPa 0,0 l/m 11,9 km/h (2 Bft) SW 225 0 min 5,0 C 3,7 C 9,7 km/h (2 Bft)
01.12.2021 21:05 8,1 C 7,9 C 7,1 C 7,7 C 6,1 C 0,0 C 80 % 84 % 993,7 hPa 0,0 l/m 12,2 km/h (2 Bft) W-SW 247 0 min 4,9 C 3,6 C 15,1 km/h (3 Bft)
01.12.2021 21:10 8,0 C 7,9 C 7,0 C 7,6 C 5,9 C 0,0 C 79 % 84 % 993,8 hPa 0,0 l/m 12,4 km/h (3 Bft) SW 225 0 min 4,6 C 3,3 C 12,1 km/h (2 Bft)
01.12.2021 21:15 8,0 C 7,9 C 7,1 C 7,5 C 5,7 C 0,0 C 78 % 83 % 993,8 hPa 0,0 l/m 14,0 km/h (3 Bft) W-SW 247 0 min 4,4 C 2,8 C 15,8 km/h (3 Bft)
01.12.2021 21:20 8,0 C 7,9 C 7,0 C 7,5 C 5,8 C 0,0 C 78 % 83 % 993,8 hPa 0,0 l/m 13,4 km/h (3 Bft) SW 225 0 min 4,4 C 3,0 C 7,9 km/h (2 Bft)
01.12.2021 21:25 8,0 C 7,9 C 6,9 C 7,5 C 5,9 C 0,0 C 78 % 83 % 993,8 hPa 0,0 l/m 11,3 km/h (2 Bft) SW 225 0 min 4,4 C 3,5 C 12,7 km/h (3 Bft)
01.12.2021 21:30 7,9 C 7,9 C 6,8 C 7,4 C 5,8 C 0,0 C 78 % 82 % 994,0 hPa 0,0 l/m 10,8 km/h (2 Bft) W-SW 247 0 min 4,3 C 3,5 C 13,4 km/h (3 Bft)
01.12.2021 21:35 7,9 C 7,9 C 6,8 C 7,3 C 5,2 C 0,0 C 76 % 81 % 994,0 hPa 0,0 l/m 14,3 km/h (3 Bft) SW 225 0 min 3,9 C 2,1 C 29,0 km/h (5 Bft)
01.12.2021 21:40 7,9 C 7,9 C 6,7 C 7,2 C 4,9 C 0,0 C 74 % 79 % 994,0 hPa 0,0 l/m 16,1 km/h (3 Bft) SW 225 0 min 3,6 C 1,5 C 26,7 km/h (4 Bft)
01.12.2021 21:45 7,8 C 7,9 C 6,7 C 6,8 C 4,9 C 0,0 C 73 % 79 % 994,0 hPa 0,0 l/m 15,4 km/h (3 Bft) SW 225 0 min 3,3 C 1,6 C 19,8 km/h (3 Bft)
01.12.2021 21:50 7,8 C 7,9 C 6,6 C 6,8 C 4,9 C 0,0 C 73 % 79 % 993,7 hPa 0,0 l/m 13,8 km/h (3 Bft) S-SW 202 0 min 3,3 C 1,8 C 17,2 km/h (3 Bft)
01.12.2021 21:55 7,6 C 7,9 C 6,4 C 7,0 C 5,2 C 0,0 C 74 % 80 % 993,7 hPa 0,0 l/m 11,9 km/h (2 Bft) SW 225 0 min 3,3 C 2,5 C 10,9 km/h (2 Bft)
01.12.2021 22:00 7,7 C 7,9 C 6,3 C 7,1 C 5,1 C 0,0 C 74 % 80 % 993,7 hPa 0,0 l/m 11,6 km/h (2 Bft) W-SW 247 0 min 3,4 C 2,5 C 12,9 km/h (3 Bft)
01.12.2021 22:05 7,6 C 7,9 C 6,5 C 6,8 C 5,1 C 0,0 C 74 % 80 % 993,7 hPa 0,0 l/m 11,7 km/h (2 Bft) SW 225 0 min 3,3 C 2,4 C 7,9 km/h (2 Bft)
01.12.2021 22:10 7,5 C 7,9 C 6,4 C 6,7 C 5,1 C 0,0 C 75 % 80 % 994,0 hPa 0,0 l/m 11,3 km/h (2 Bft) W-SW 247 0 min 3,4 C 2,5 C 12,7 km/h (3 Bft)
01.12.2021 22:15 7,5 C 7,9 C 6,3 C 6,9 C 5,2 C 0,0 C 75 % 80 % 994,0 hPa 0,0 l/m 10,5 km/h (2 Bft) S-SW 202 0 min 3,4 C 2,8 C 17,5 km/h (3 Bft)
01.12.2021 22:20 7,4 C 7,9 C 6,3 C 6,7 C 5,2 C 0,0 C 75 % 80 % 994,0 hPa 0,0 l/m 11,1 km/h (2 Bft) W 270 0 min 3,3 C 2,7 C 13,4 km/h (3 Bft)
01.12.2021 22:25 7,6 C 7,9 C 6,5 C 7,1 C 5,4 C 0,0 C 75 % 80 % 994,0 hPa 0,0 l/m 12,1 km/h (2 Bft) S 180 0 min 3,5 C 2,7 C 14,5 km/h (3 Bft)
01.12.2021 22:30 7,6 C 7,9 C 6,5 C 7,1 C 5,5 C 0,0 C 75 % 80 % 993,9 hPa 0,0 l/m 11,6 km/h (2 Bft) S-SW 202 0 min 3,5 C 2,9 C 7,7 km/h (2 Bft)
01.12.2021 22:35 7,5 C 7,9 C 6,4 C 7,0 C 5,4 C 0,0 C 75 % 80 % 993,9 hPa 0,0 l/m 11,3 km/h (2 Bft) SW 225 0 min 3,4 C 2,9 C 19,2 km/h (3 Bft)
01.12.2021 22:40 7,5 C 7,9 C 6,4 C 7,0 C 5,2 C 0,0 C 75 % 80 % 993,9 hPa 0,0 l/m 11,7 km/h (2 Bft) SW 225 0 min 3,4 C 2,6 C 13,4 km/h (3 Bft)
01.12.2021 22:45 7,5 C 7,9 C 6,4 C 6,7 C 5,2 C 0,0 C 75 % 80 % 993,9 hPa 0,0 l/m 11,4 km/h (2 Bft) SW 225 0 min 3,4 C 2,6 C 12,2 km/h (2 Bft)
01.12.2021 22:50 7,5 C 7,9 C 6,5 C 7,0 C 5,3 C 0,0 C 75 % 80 % 994,2 hPa 0,0 l/m 11,6 km/h (2 Bft) SW 225 0 min 3,4 C 2,7 C 12,7 km/h (3 Bft)
01.12.2021 22:55 7,5 C 7,9 C 6,6 C 7,0 C 5,4 C 0,0 C 75 % 80 % 994,2 hPa 0,0 l/m 11,9 km/h (2 Bft) W-SW 247 0 min 3,4 C 2,8 C 11,9 km/h (2 Bft)
01.12.2021 23:00 7,4 C 7,9 C 6,6 C 7,0 C 5,7 C 0,0 C 75 % 80 % 994,2 hPa 0,0 l/m 10,6 km/h (2 Bft) NW 315 0 min 3,3 C 3,4 C 11,6 km/h (2 Bft)
01.12.2021 23:05 7,4 C 7,9 C 6,6 C 7,1 C 6,1 C 0,0 C 76 % 80 % 994,2 hPa 0,0 l/m 8,5 km/h (2 Bft) W-SW 247 0 min 3,5 C 4,3 C 11,1 km/h (2 Bft)
01.12.2021 23:10 7,4 C 7,9 C 6,6 C 7,1 C 5,8 C 0,0 C 76 % 80 % 994,4 hPa 0,0 l/m 9,7 km/h (2 Bft) SW 225 0 min 3,5 C 3,7 C 10,3 km/h (2 Bft)
01.12.2021 23:15 7,2 C 7,9 C 6,3 C 6,8 C 5,0 C 0,0 C 77 % 83 % 994,4 hPa 0,0 l/m 10,8 km/h (2 Bft) W-SW 247 0 min 3,4 C 2,5 C 21,2 km/h (4 Bft)
01.12.2021 23:20 6,8 C 8,1 C 5,7 C 6,2 C 3,8 C 0,0 C 78 % 84 % 994,4 hPa 0,0 l/m 11,7 km/h (2 Bft) S 180 0 min 3,2 C 0,9 C 29,1 km/h (5 Bft)
01.12.2021 23:25 5,9 C 8,1 C 4,9 C 5,1 C 1,8 C 0,0 C 80 % 86 % 994,4 hPa 0,7 l/m 16,3 km/h (3 Bft) SW 225 0 min 2,7 C -2,4 C 20,4 km/h (4 Bft)
01.12.2021 23:30 5,6 C 8,1 C 4,6 C 4,6 C 1,2 C 0,0 C 81 % 87 % 995,2 hPa 0,0 l/m 16,6 km/h (3 Bft) W-SW 247 0 min 2,6 C -3,2 C 15,3 km/h (3 Bft)
01.12.2021 23:35 5,5 C 8,1 C 4,3 C 4,1 C 1,2 C 0,0 C 81 % 88 % 995,2 hPa 0,0 l/m 14,3 km/h (3 Bft) SW 225 0 min 2,5 C -2,8 C 15,0 km/h (3 Bft)
01.12.2021 23:40 5,3 C 8,1 C 4,2 C 4,3 C 1,3 C 0,0 C 82 % 88 % 995,2 hPa 0,0 l/m 14,0 km/h (3 Bft) SW 225 0 min 2,5 C -2,6 C 18,2 km/h (3 Bft)
01.12.2021 23:45 5,2 C 8,1 C 4,2 C 4,3 C 1,4 C 0,0 C 82 % 89 % 995,2 hPa 0,0 l/m 13,0 km/h (3 Bft) W 270 0 min 2,4 C -2,3 C 15,3 km/h (3 Bft)
01.12.2021 23:50 5,2 C 8,0 C 4,1 C 3,9 C 1,4 C 0,0 C 83 % 89 % 995,1 hPa 0,0 l/m 13,4 km/h (3 Bft) SW 225 0 min 2,6 C -2,4 C 14,5 km/h (3 Bft)
01.12.2021 23:55 5,2 C 7,9 C 4,0 C 4,3 C 1,6 C 0,0 C 83 % 90 % 995,1 hPa 0,0 l/m 13,0 km/h (3 Bft) S 180 0 min 2,6 C -2,1 C 19,5 km/h (3 Bft)
_ Min-Zeit 03:45 00:00 00:05 23:50 23:30 00:00 21:45 21:40 19:10 - 02:45 - - - 00:00 23:30 02:40
Minimum _ 4,2 C 6,7 C 3,6 C 3,9 C 1,2 C 0,0 C 73 % 79 % 992,4 hPa - 1,0 km/h (0 Bft) - - - 2,2 C -3,2 C 0,0 km/h (0 Bft)
_ Max-Zeit 20:10 23:20 14:30 14:30 14:30 14:30 02:55 03:35 01:10 03:40 23:30 - - 00:00 19:20 15:55 10:15
Maximum _ 8,4 C 8,1 C 7,6 C 8,8 C 8,4 C 1,0 C 89 % 95 % 1007,9 hPa 0,7 l/m 16,6 km/h
W-SW (3 Bft)
- - 0 min 5,5 C 7,3 C 31,9 km/h
SW (5 Bft)
Durchschnitt _ 6,4 C 7,5 C 5,7 C 6,1 C 5,3 C 0,0 C 84 % 89 % 998,8 hPa #4,1 l/m 7,2 km/h (2 Bft) SW - #0 min. 3,8 C 3,9 C 10,2 km/h (2 Bft)
2021 www.wetterstation-wechselburg.de